sensor_id;sensor_type;location;lat;lon;timestamp;P1;durP1;ratioP1;P2;durP2;ratioP2
66272;SDS011;58450;52.150;4.466;2023-04-24T00:02:20;6.82;;;2.00;;
66272;SDS011;58450;52.150;4.466;2023-04-24T00:04:48;7.28;;;2.10;;
66272;SDS011;58450;52.150;4.466;2023-04-24T00:07:16;5.03;;;2.30;;
66272;SDS011;58450;52.150;4.466;2023-04-24T00:09:45;6.45;;;2.08;;
66272;SDS011;58450;52.150;4.466;2023-04-24T00:12:14;5.53;;;1.90;;
66272;SDS011;58450;52.150;4.466;2023-04-24T00:14:41;5.70;;;1.83;;
66272;SDS011;58450;52.150;4.466;2023-04-24T00:17:09;6.88;;;1.88;;
66272;SDS011;58450;52.150;4.466;2023-04-24T00:19:37;7.07;;;2.20;;
66272;SDS011;58450;52.150;4.466;2023-04-24T00:22:04;6.75;;;2.00;;
66272;SDS011;58450;52.150;4.466;2023-04-24T00:24:32;5.82;;;1.92;;
66272;SDS011;58450;52.150;4.466;2023-04-24T00:27:00;5.75;;;1.80;;
66272;SDS011;58450;52.150;4.466;2023-04-24T00:29:29;6.35;;;2.10;;
66272;SDS011;58450;52.150;4.466;2023-04-24T00:31:57;5.55;;;2.10;;
66272;SDS011;58450;52.150;4.466;2023-04-24T00:34:24;6.95;;;2.35;;
66272;SDS011;58450;52.150;4.466;2023-04-24T00:36:52;4.25;;;1.80;;
66272;SDS011;58450;52.150;4.466;2023-04-24T00:39:20;5.32;;;1.65;;
66272;SDS011;58450;52.150;4.466;2023-04-24T00:41:48;3.78;;;1.60;;
66272;SDS011;58450;52.150;4.466;2023-04-24T00:44:18;7.63;;;2.13;;
66272;SDS011;58450;52.150;4.466;2023-04-24T00:46:47;5.97;;;2.22;;
66272;SDS011;58450;52.150;4.466;2023-04-24T00:49:20;8.07;;;1.70;;
66272;SDS011;58450;52.150;4.466;2023-04-24T00:51:48;6.90;;;1.70;;
66272;SDS011;58450;52.150;4.466;2023-04-24T00:54:17;4.93;;;1.60;;
66272;SDS011;58450;52.150;4.466;2023-04-24T00:56:45;3.50;;;1.60;;
66272;SDS011;58450;52.150;4.466;2023-04-24T00:59:14;5.70;;;1.77;;
66272;SDS011;58450;52.150;4.466;2023-04-24T01:01:43;6.05;;;1.80;;
66272;SDS011;58450;52.150;4.466;2023-04-24T01:04:13;4.70;;;1.55;;
66272;SDS011;58450;52.150;4.466;2023-04-24T01:06:41;6.75;;;1.70;;
66272;SDS011;58450;52.150;4.466;2023-04-24T01:09:12;5.93;;;1.80;;
66272;SDS011;58450;52.150;4.466;2023-04-24T01:11:40;3.67;;;1.42;;
66272;SDS011;58450;52.150;4.466;2023-04-24T01:14:09;9.32;;;1.75;;
66272;SDS011;58450;52.150;4.466;2023-04-24T01:16:37;6.82;;;1.80;;
66272;SDS011;58450;52.150;4.466;2023-04-24T01:19:05;6.40;;;2.00;;
66272;SDS011;58450;52.150;4.466;2023-04-24T01:21:35;4.28;;;1.77;;
66272;SDS011;58450;52.150;4.466;2023-04-24T01:24:06;7.30;;;2.08;;
66272;SDS011;58450;52.150;4.466;2023-04-24T01:26:34;6.95;;;1.98;;
66272;SDS011;58450;52.150;4.466;2023-04-24T01:29:01;6.50;;;1.88;;
66272;SDS011;58450;52.150;4.466;2023-04-24T01:31:29;5.13;;;1.80;;
66272;SDS011;58450;52.150;4.466;2023-04-24T01:33:57;3.53;;;1.88;;
66272;SDS011;58450;52.150;4.466;2023-04-24T01:36:25;3.20;;;1.75;;
66272;SDS011;58450;52.150;4.466;2023-04-24T01:38:55;3.15;;;1.75;;
66272;SDS011;58450;52.150;4.466;2023-04-24T01:41:24;3.63;;;1.80;;
66272;SDS011;58450;52.150;4.466;2023-04-24T01:43:52;7.32;;;2.10;;
66272;SDS011;58450;52.150;4.466;2023-04-24T01:46:20;4.22;;;1.73;;
66272;SDS011;58450;52.150;4.466;2023-04-24T01:48:48;6.07;;;1.85;;
66272;SDS011;58450;52.150;4.466;2023-04-24T01:51:16;3.67;;;1.80;;
66272;SDS011;58450;52.150;4.466;2023-04-24T01:53:44;6.68;;;1.80;;
66272;SDS011;58450;52.150;4.466;2023-04-24T01:56:12;4.78;;;2.22;;
66272;SDS011;58450;52.150;4.466;2023-04-24T01:58:41;4.70;;;1.77;;
66272;SDS011;58450;52.150;4.466;2023-04-24T02:01:14;3.03;;;1.60;;
66272;SDS011;58450;52.150;4.466;2023-04-24T02:03:44;6.45;;;1.80;;
66272;SDS011;58450;52.150;4.466;2023-04-24T02:06:12;6.13;;;1.60;;
66272;SDS011;58450;52.150;4.466;2023-04-24T02:08:40;5.60;;;1.50;;
66272;SDS011;58450;52.150;4.466;2023-04-24T02:11:08;5.80;;;1.58;;
66272;SDS011;58450;52.150;4.466;2023-04-24T02:13:36;4.40;;;1.77;;
66272;SDS011;58450;52.150;4.466;2023-04-24T02:16:05;4.30;;;1.70;;
66272;SDS011;58450;52.150;4.466;2023-04-24T02:18:32;3.40;;;1.60;;
66272;SDS011;58450;52.150;4.466;2023-04-24T02:21:00;6.13;;;1.80;;
66272;SDS011;58450;52.150;4.466;2023-04-24T02:23:27;4.50;;;1.67;;
66272;SDS011;58450;52.150;4.466;2023-04-24T02:25:55;4.75;;;1.58;;
66272;SDS011;58450;52.150;4.466;2023-04-24T02:28:22;3.28;;;1.50;;
66272;SDS011;58450;52.150;4.466;2023-04-24T02:30:50;5.13;;;2.10;;
66272;SDS011;58450;52.150;4.466;2023-04-24T02:33:19;5.75;;;1.60;;
66272;SDS011;58450;52.150;4.466;2023-04-24T02:35:46;6.50;;;1.70;;
66272;SDS011;58450;52.150;4.466;2023-04-24T02:38:14;7.40;;;1.92;;
66272;SDS011;58450;52.150;4.466;2023-04-24T02:40:41;9.35;;;2.75;;
66272;SDS011;58450;52.150;4.466;2023-04-24T02:43:09;7.55;;;1.90;;
66272;SDS011;58450;52.150;4.466;2023-04-24T02:45:36;5.53;;;1.67;;
66272;SDS011;58450;52.150;4.466;2023-04-24T02:48:04;8.00;;;1.80;;
66272;SDS011;58450;52.150;4.466;2023-04-24T02:50:33;7.47;;;1.80;;
66272;SDS011;58450;52.150;4.466;2023-04-24T02:53:00;7.15;;;1.60;;
66272;SDS011;58450;52.150;4.466;2023-04-24T02:55:28;4.93;;;1.60;;
66272;SDS011;58450;52.150;4.466;2023-04-24T02:57:56;4.50;;;1.48;;
66272;SDS011;58450;52.150;4.466;2023-04-24T03:00:23;6.85;;;1.10;;
66272;SDS011;58450;52.150;4.466;2023-04-24T03:02:51;3.63;;;1.20;;
66272;SDS011;58450;52.150;4.466;2023-04-24T03:05:18;5.85;;;1.23;;
66272;SDS011;58450;52.150;4.466;2023-04-24T03:07:48;7.07;;;1.20;;
66272;SDS011;58450;52.150;4.466;2023-04-24T03:10:15;4.50;;;1.15;;
66272;SDS011;58450;52.150;4.466;2023-04-24T03:12:43;2.28;;;1.17;;
66272;SDS011;58450;52.150;4.466;2023-04-24T03:15:10;5.95;;;1.02;;
66272;SDS011;58450;52.150;4.466;2023-04-24T03:17:38;3.42;;;1.05;;
66272;SDS011;58450;52.150;4.466;2023-04-24T03:20:06;5.07;;;0.85;;
66272;SDS011;58450;52.150;4.466;2023-04-24T03:22:35;3.17;;;1.10;;
66272;SDS011;58450;52.150;4.466;2023-04-24T03:25:05;2.25;;;0.80;;
66272;SDS011;58450;52.150;4.466;2023-04-24T03:27:34;2.08;;;0.80;;
66272;SDS011;58450;52.150;4.466;2023-04-24T03:30:03;1.10;;;0.70;;
66272;SDS011;58450;52.150;4.466;2023-04-24T03:32:31;2.53;;;0.75;;
66272;SDS011;58450;52.150;4.466;2023-04-24T03:34:59;5.03;;;1.00;;
66272;SDS011;58450;52.150;4.466;2023-04-24T03:37:27;2.03;;;0.70;;
66272;SDS011;58450;52.150;4.466;2023-04-24T03:39:54;2.10;;;0.77;;
66272;SDS011;58450;52.150;4.466;2023-04-24T03:42:23;2.88;;;0.95;;
66272;SDS011;58450;52.150;4.466;2023-04-24T03:44:50;1.73;;;0.90;;
66272;SDS011;58450;52.150;4.466;2023-04-24T03:47:18;2.97;;;1.02;;
66272;SDS011;58450;52.150;4.466;2023-04-24T03:49:45;2.53;;;0.90;;
66272;SDS011;58450;52.150;4.466;2023-04-24T03:52:13;3.17;;;1.00;;
66272;SDS011;58450;52.150;4.466;2023-04-24T03:54:40;3.47;;;0.90;;
66272;SDS011;58450;52.150;4.466;2023-04-24T03:57:08;1.73;;;0.90;;
66272;SDS011;58450;52.150;4.466;2023-04-24T03:59:37;1.63;;;0.90;;
66272;SDS011;58450;52.150;4.466;2023-04-24T04:02:04;2.22;;;0.85;;
66272;SDS011;58450;52.150;4.466;2023-04-24T04:04:32;4.88;;;1.10;;
66272;SDS011;58450;52.150;4.466;2023-04-24T04:06:59;3.03;;;1.05;;
66272;SDS011;58450;52.150;4.466;2023-04-24T04:09:28;4.28;;;1.42;;
66272;SDS011;58450;52.150;4.466;2023-04-24T04:11:56;4.45;;;1.55;;
66272;SDS011;58450;52.150;4.466;2023-04-24T04:14:23;4.18;;;1.50;;
66272;SDS011;58450;52.150;4.466;2023-04-24T04:16:52;4.75;;;1.42;;
66272;SDS011;58450;52.150;4.466;2023-04-24T04:19:20;5.95;;;1.40;;
66272;SDS011;58450;52.150;4.466;2023-04-24T04:21:47;3.63;;;1.40;;
66272;SDS011;58450;52.150;4.466;2023-04-24T04:24:18;5.63;;;1.42;;
66272;SDS011;58450;52.150;4.466;2023-04-24T04:26:48;4.45;;;1.80;;
66272;SDS011;58450;52.150;4.466;2023-04-24T04:29:16;8.73;;;2.50;;
66272;SDS011;58450;52.150;4.466;2023-04-24T04:31:44;10.05;;;3.13;;
66272;SDS011;58450;52.150;4.466;2023-04-24T04:34:13;7.97;;;3.40;;
66272;SDS011;58450;52.150;4.466;2023-04-24T04:36:41;9.32;;;4.32;;
66272;SDS011;58450;52.150;4.466;2023-04-24T04:39:10;14.25;;;6.03;;
66272;SDS011;58450;52.150;4.466;2023-04-24T04:41:37;12.20;;;5.50;;
66272;SDS011;58450;52.150;4.466;2023-04-24T04:44:06;14.07;;;5.40;;
66272;SDS011;58450;52.150;4.466;2023-04-24T04:46:35;12.75;;;5.35;;
66272;SDS011;58450;52.150;4.466;2023-04-24T04:49:04;13.00;;;5.15;;
66272;SDS011;58450;52.150;4.466;2023-04-24T04:51:33;15.80;;;5.63;;
66272;SDS011;58450;52.150;4.466;2023-04-24T04:54:01;11.80;;;4.82;;
66272;SDS011;58450;52.150;4.466;2023-04-24T04:56:28;15.57;;;6.00;;
66272;SDS011;58450;52.150;4.466;2023-04-24T04:58:56;13.70;;;6.05;;
66272;SDS011;58450;52.150;4.466;2023-04-24T05:01:25;17.70;;;8.13;;
66272;SDS011;58450;52.150;4.466;2023-04-24T05:03:53;17.70;;;8.25;;
66272;SDS011;58450;52.150;4.466;2023-04-24T05:06:20;22.98;;;12.07;;
66272;SDS011;58450;52.150;4.466;2023-04-24T05:08:49;25.23;;;12.70;;
66272;SDS011;58450;52.150;4.466;2023-04-24T05:11:17;29.98;;;14.40;;
66272;SDS011;58450;52.150;4.466;2023-04-24T05:13:44;30.48;;;14.57;;
66272;SDS011;58450;52.150;4.466;2023-04-24T05:16:11;32.17;;;13.82;;
66272;SDS011;58450;52.150;4.466;2023-04-24T05:18:39;29.92;;;13.90;;
66272;SDS011;58450;52.150;4.466;2023-04-24T05:21:06;28.00;;;12.45;;
66272;SDS011;58450;52.150;4.466;2023-04-24T05:23:34;21.65;;;11.82;;
66272;SDS011;58450;52.150;4.466;2023-04-24T05:26:03;21.70;;;10.65;;
66272;SDS011;58450;52.150;4.466;2023-04-24T05:28:30;23.70;;;11.52;;
66272;SDS011;58450;52.150;4.466;2023-04-24T05:30:58;24.33;;;10.88;;
66272;SDS011;58450;52.150;4.466;2023-04-24T05:33:26;20.33;;;10.25;;
66272;SDS011;58450;52.150;4.466;2023-04-24T05:35:54;21.30;;;10.60;;
66272;SDS011;58450;52.150;4.466;2023-04-24T05:38:21;23.58;;;10.63;;
66272;SDS011;58450;52.150;4.466;2023-04-24T05:40:49;22.52;;;10.38;;
66272;SDS011;58450;52.150;4.466;2023-04-24T05:43:18;20.50;;;9.60;;
66272;SDS011;58450;52.150;4.466;2023-04-24T05:45:45;25.60;;;10.27;;
66272;SDS011;58450;52.150;4.466;2023-04-24T05:48:13;20.90;;;10.23;;
66272;SDS011;58450;52.150;4.466;2023-04-24T05:50:40;23.10;;;9.50;;
66272;SDS011;58450;52.150;4.466;2023-04-24T05:53:08;21.60;;;9.23;;
66272;SDS011;58450;52.150;4.466;2023-04-24T05:55:36;27.48;;;10.23;;
66272;SDS011;58450;52.150;4.466;2023-04-24T05:58:04;21.95;;;8.93;;
66272;SDS011;58450;52.150;4.466;2023-04-24T06:00:33;24.52;;;8.30;;
66272;SDS011;58450;52.150;4.466;2023-04-24T06:03:01;24.63;;;8.88;;
66272;SDS011;58450;52.150;4.466;2023-04-24T06:05:29;22.90;;;6.95;;
66272;SDS011;58450;52.150;4.466;2023-04-24T06:07:57;26.33;;;6.65;;
66272;SDS011;58450;52.150;4.466;2023-04-24T06:10:24;18.40;;;6.40;;
66272;SDS011;58450;52.150;4.466;2023-04-24T06:12:52;28.83;;;6.90;;
66272;SDS011;58450;52.150;4.466;2023-04-24T06:15:21;19.90;;;6.45;;
66272;SDS011;58450;52.150;4.466;2023-04-24T06:17:50;25.25;;;6.60;;
66272;SDS011;58450;52.150;4.466;2023-04-24T06:20:18;21.02;;;6.15;;
66272;SDS011;58450;52.150;4.466;2023-04-24T06:22:45;21.00;;;5.97;;
66272;SDS011;58450;52.150;4.466;2023-04-24T06:25:13;22.05;;;5.90;;
66272;SDS011;58450;52.150;4.466;2023-04-24T06:27:40;19.60;;;5.85;;
66272;SDS011;58450;52.150;4.466;2023-04-24T06:30:08;20.58;;;5.50;;
66272;SDS011;58450;52.150;4.466;2023-04-24T06:32:37;21.33;;;6.10;;
66272;SDS011;58450;52.150;4.466;2023-04-24T06:35:06;21.35;;;5.78;;
66272;SDS011;58450;52.150;4.466;2023-04-24T06:37:35;21.50;;;6.00;;
66272;SDS011;58450;52.150;4.466;2023-04-24T06:40:03;29.98;;;6.47;;
66272;SDS011;58450;52.150;4.466;2023-04-24T06:42:32;20.00;;;5.35;;
66272;SDS011;58450;52.150;4.466;2023-04-24T06:45:00;19.88;;;5.78;;
66272;SDS011;58450;52.150;4.466;2023-04-24T06:47:29;20.98;;;5.45;;
66272;SDS011;58450;52.150;4.466;2023-04-24T06:49:56;21.38;;;4.80;;
66272;SDS011;58450;52.150;4.466;2023-04-24T06:52:26;26.20;;;4.63;;
66272;SDS011;58450;52.150;4.466;2023-04-24T06:54:59;15.55;;;3.92;;
66272;SDS011;58450;52.150;4.466;2023-04-24T06:57:28;20.45;;;4.47;;
66272;SDS011;58450;52.150;4.466;2023-04-24T06:59:55;21.00;;;4.25;;
66272;SDS011;58450;52.150;4.466;2023-04-24T07:02:23;25.27;;;5.20;;
66272;SDS011;58450;52.150;4.466;2023-04-24T07:04:51;18.58;;;4.22;;
66272;SDS011;58450;52.150;4.466;2023-04-24T07:07:18;15.50;;;3.80;;
66272;SDS011;58450;52.150;4.466;2023-04-24T07:09:48;18.67;;;4.40;;
66272;SDS011;58450;52.150;4.466;2023-04-24T07:12:16;22.75;;;3.65;;
66272;SDS011;58450;52.150;4.466;2023-04-24T07:14:46;16.90;;;3.67;;
66272;SDS011;58450;52.150;4.466;2023-04-24T07:17:13;22.88;;;4.55;;
66272;SDS011;58450;52.150;4.466;2023-04-24T07:19:41;20.70;;;3.53;;
66272;SDS011;58450;52.150;4.466;2023-04-24T07:22:09;18.20;;;3.63;;
66272;SDS011;58450;52.150;4.466;2023-04-24T07:24:42;17.40;;;3.53;;
66272;SDS011;58450;52.150;4.466;2023-04-24T07:27:11;20.10;;;3.65;;
66272;SDS011;58450;52.150;4.466;2023-04-24T07:29:40;16.52;;;3.47;;
66272;SDS011;58450;52.150;4.466;2023-04-24T07:32:08;15.07;;;3.53;;
66272;SDS011;58450;52.150;4.466;2023-04-24T07:34:36;15.07;;;3.00;;
66272;SDS011;58450;52.150;4.466;2023-04-24T07:37:03;12.45;;;2.60;;
66272;SDS011;58450;52.150;4.466;2023-04-24T07:39:31;17.88;;;2.97;;
66272;SDS011;58450;52.150;4.466;2023-04-24T07:41:58;15.10;;;2.90;;
66272;SDS011;58450;52.150;4.466;2023-04-24T07:44:28;12.80;;;3.20;;
66272;SDS011;58450;52.150;4.466;2023-04-24T07:46:56;13.02;;;2.85;;
66272;SDS011;58450;52.150;4.466;2023-04-24T07:49:23;15.50;;;3.30;;
66272;SDS011;58450;52.150;4.466;2023-04-24T07:51:51;17.50;;;3.45;;
66272;SDS011;58450;52.150;4.466;2023-04-24T07:54:18;15.77;;;2.55;;
66272;SDS011;58450;52.150;4.466;2023-04-24T07:56:46;13.07;;;3.00;;
66272;SDS011;58450;52.150;4.466;2023-04-24T07:59:13;12.48;;;3.05;;
66272;SDS011;58450;52.150;4.466;2023-04-24T08:01:42;12.45;;;2.80;;
66272;SDS011;58450;52.150;4.466;2023-04-24T08:04:09;12.13;;;3.17;;
66272;SDS011;58450;52.150;4.466;2023-04-24T08:06:37;14.30;;;3.80;;
66272;SDS011;58450;52.150;4.466;2023-04-24T08:09:04;12.45;;;2.40;;
66272;SDS011;58450;52.150;4.466;2023-04-24T08:11:32;8.40;;;2.47;;
66272;SDS011;58450;52.150;4.466;2023-04-24T08:13:59;9.73;;;2.92;;
66272;SDS011;58450;52.150;4.466;2023-04-24T08:16:27;13.60;;;2.72;;
66272;SDS011;58450;52.150;4.466;2023-04-24T08:18:56;11.18;;;2.67;;
66272;SDS011;58450;52.150;4.466;2023-04-24T08:21:23;12.68;;;2.90;;
66272;SDS011;58450;52.150;4.466;2023-04-24T08:23:52;7.75;;;2.35;;
66272;SDS011;58450;52.150;4.466;2023-04-24T08:26:20;9.55;;;2.50;;
66272;SDS011;58450;52.150;4.466;2023-04-24T08:28:47;7.90;;;2.28;;
66272;SDS011;58450;52.150;4.466;2023-04-24T08:31:15;6.63;;;2.10;;
66272;SDS011;58450;52.150;4.466;2023-04-24T08:33:43;9.57;;;2.60;;
66272;SDS011;58450;52.150;4.466;2023-04-24T08:36:12;11.10;;;2.45;;
66272;SDS011;58450;52.150;4.466;2023-04-24T08:38:40;8.00;;;2.17;;
66272;SDS011;58450;52.150;4.466;2023-04-24T08:41:09;8.32;;;2.28;;
66272;SDS011;58450;52.150;4.466;2023-04-24T08:43:37;9.75;;;1.83;;
66272;SDS011;58450;52.150;4.466;2023-04-24T08:46:06;11.73;;;2.13;;
66272;SDS011;58450;52.150;4.466;2023-04-24T08:48:35;7.32;;;1.70;;
66272;SDS011;58450;52.150;4.466;2023-04-24T08:51:04;7.05;;;1.75;;
66272;SDS011;58450;52.150;4.466;2023-04-24T08:53:36;5.75;;;1.70;;
66272;SDS011;58450;52.150;4.466;2023-04-24T08:56:04;7.70;;;1.80;;
66272;SDS011;58450;52.150;4.466;2023-04-24T08:58:33;6.78;;;1.42;;
66272;SDS011;58450;52.150;4.466;2023-04-24T09:01:02;8.43;;;1.70;;
66272;SDS011;58450;52.150;4.466;2023-04-24T09:03:31;7.90;;;1.80;;
66272;SDS011;58450;52.150;4.466;2023-04-24T09:06:00;4.78;;;1.38;;
66272;SDS011;58450;52.150;4.466;2023-04-24T09:08:29;7.57;;;1.90;;
66272;SDS011;58450;52.150;4.466;2023-04-24T09:10:59;7.28;;;1.73;;
66272;SDS011;58450;52.150;4.466;2023-04-24T09:13:28;4.80;;;1.35;;
66272;SDS011;58450;52.150;4.466;2023-04-24T09:15:58;4.47;;;1.20;;
66272;SDS011;58450;52.150;4.466;2023-04-24T09:18:27;6.43;;;1.27;;
66272;SDS011;58450;52.150;4.466;2023-04-24T09:20:57;6.03;;;1.25;;
66272;SDS011;58450;52.150;4.466;2023-04-24T09:23:26;3.15;;;1.20;;
66272;SDS011;58450;52.150;4.466;2023-04-24T09:25:55;6.63;;;1.60;;
66272;SDS011;58450;52.150;4.466;2023-04-24T09:28:30;9.00;;;1.02;;
66272;SDS011;58450;52.150;4.466;2023-04-24T09:31:03;4.93;;;0.90;;
66272;SDS011;58450;52.150;4.466;2023-04-24T09:33:32;8.13;;;1.30;;
66272;SDS011;58450;52.150;4.466;2023-04-24T09:36:00;6.60;;;1.17;;
66272;SDS011;58450;52.150;4.466;2023-04-24T09:38:31;7.30;;;1.40;;
66272;SDS011;58450;52.150;4.466;2023-04-24T09:41:01;8.15;;;1.38;;
66272;SDS011;58450;52.150;4.466;2023-04-24T09:43:33;8.85;;;2.00;;
66272;SDS011;58450;52.150;4.466;2023-04-24T09:46:04;12.75;;;1.90;;
66272;SDS011;58450;52.150;4.466;2023-04-24T09:48:35;7.35;;;1.70;;
66272;SDS011;58450;52.150;4.466;2023-04-24T09:51:05;9.65;;;1.23;;
66272;SDS011;58450;52.150;4.466;2023-04-24T09:53:36;10.02;;;1.73;;
66272;SDS011;58450;52.150;4.466;2023-04-24T09:56:06;9.00;;;1.80;;
66272;SDS011;58450;52.150;4.466;2023-04-24T09:58:36;5.43;;;1.42;;
66272;SDS011;58450;52.150;4.466;2023-04-24T10:01:04;7.03;;;1.13;;
66272;SDS011;58450;52.150;4.466;2023-04-24T10:03:32;5.90;;;1.38;;
66272;SDS011;58450;52.150;4.466;2023-04-24T10:06:01;6.30;;;1.20;;
66272;SDS011;58450;52.150;4.466;2023-04-24T10:08:34;5.13;;;1.08;;
66272;SDS011;58450;52.150;4.466;2023-04-24T10:11:03;2.92;;;0.80;;
66272;SDS011;58450;52.150;4.466;2023-04-24T10:13:31;5.75;;;1.27;;
66272;SDS011;58450;52.150;4.466;2023-04-24T10:16:02;3.75;;;1.10;;
66272;SDS011;58450;52.150;4.466;2023-04-24T10:18:31;5.60;;;1.10;;
66272;SDS011;58450;52.150;4.466;2023-04-24T10:21:00;4.68;;;1.05;;
66272;SDS011;58450;52.150;4.466;2023-04-24T10:23:28;3.22;;;1.08;;
66272;SDS011;58450;52.150;4.466;2023-04-24T10:25:57;7.10;;;1.55;;
66272;SDS011;58450;52.150;4.466;2023-04-24T10:28:27;7.78;;;1.38;;
66272;SDS011;58450;52.150;4.466;2023-04-24T10:30:58;5.97;;;1.30;;
66272;SDS011;58450;52.150;4.466;2023-04-24T10:33:29;8.75;;;1.73;;
66272;SDS011;58450;52.150;4.466;2023-04-24T10:35:58;9.60;;;1.75;;
66272;SDS011;58450;52.150;4.466;2023-04-24T10:38:26;8.32;;;1.60;;
66272;SDS011;58450;52.150;4.466;2023-04-24T10:40:57;9.27;;;1.83;;
66272;SDS011;58450;52.150;4.466;2023-04-24T10:43:35;10.57;;;1.98;;
66272;SDS011;58450;52.150;4.466;2023-04-24T10:46:03;10.70;;;1.98;;
66272;SDS011;58450;52.150;4.466;2023-04-24T10:48:34;10.48;;;1.55;;
66272;SDS011;58450;52.150;4.466;2023-04-24T10:51:02;8.63;;;1.70;;
66272;SDS011;58450;52.150;4.466;2023-04-24T10:53:30;8.40;;;1.83;;
66272;SDS011;58450;52.150;4.466;2023-04-24T10:55:58;10.18;;;1.73;;
66272;SDS011;58450;52.150;4.466;2023-04-24T10:58:37;10.00;;;1.63;;
66272;SDS011;58450;52.150;4.466;2023-04-24T11:01:22;7.07;;;1.70;;
66272;SDS011;58450;52.150;4.466;2023-04-24T11:03:55;8.38;;;1.25;;
66272;SDS011;58450;52.150;4.466;2023-04-24T11:06:28;8.15;;;1.70;;
66272;SDS011;58450;52.150;4.466;2023-04-24T11:09:01;6.30;;;1.27;;
66272;SDS011;58450;52.150;4.466;2023-04-24T11:11:32;5.10;;;1.35;;
66272;SDS011;58450;52.150;4.466;2023-04-24T11:14:02;5.70;;;1.38;;
66272;SDS011;58450;52.150;4.466;2023-04-24T11:16:38;8.75;;;1.70;;
66272;SDS011;58450;52.150;4.466;2023-04-24T11:19:18;8.32;;;1.40;;
66272;SDS011;58450;52.150;4.466;2023-04-24T11:21:55;5.65;;;1.50;;
66272;SDS011;58450;52.150;4.466;2023-04-24T11:24:27;6.70;;;1.48;;
66272;SDS011;58450;52.150;4.466;2023-04-24T11:27:07;7.65;;;2.00;;
66272;SDS011;58450;52.150;4.466;2023-04-24T11:29:41;5.97;;;1.65;;
66272;SDS011;58450;52.150;4.466;2023-04-24T11:32:15;8.25;;;1.85;;
66272;SDS011;58450;52.150;4.466;2023-04-24T11:34:53;11.13;;;1.85;;
66272;SDS011;58450;52.150;4.466;2023-04-24T11:37:23;9.38;;;2.00;;
66272;SDS011;58450;52.150;4.466;2023-04-24T11:39:53;10.60;;;2.15;;
66272;SDS011;58450;52.150;4.466;2023-04-24T11:42:22;13.50;;;2.22;;
66272;SDS011;58450;52.150;4.466;2023-04-24T11:44:51;12.98;;;2.40;;
66272;SDS011;58450;52.150;4.466;2023-04-24T11:47:27;8.82;;;2.40;;
66272;SDS011;58450;52.150;4.466;2023-04-24T11:49:57;15.18;;;3.15;;
66272;SDS011;58450;52.150;4.466;2023-04-24T11:52:25;15.68;;;3.05;;
66272;SDS011;58450;52.150;4.466;2023-04-24T11:54:53;12.32;;;2.67;;
66272;SDS011;58450;52.150;4.466;2023-04-24T11:57:21;14.45;;;2.70;;
66272;SDS011;58450;52.150;4.466;2023-04-24T11:59:52;14.88;;;2.78;;
66272;SDS011;58450;52.150;4.466;2023-04-24T12:02:20;10.55;;;2.40;;
66272;SDS011;58450;52.150;4.466;2023-04-24T12:04:49;16.27;;;3.13;;
66272;SDS011;58450;52.150;4.466;2023-04-24T12:07:18;10.13;;;2.50;;
66272;SDS011;58450;52.150;4.466;2023-04-24T12:09:47;14.05;;;2.85;;
66272;SDS011;58450;52.150;4.466;2023-04-24T12:12:16;17.75;;;3.08;;
66272;SDS011;58450;52.150;4.466;2023-04-24T12:14:48;12.05;;;2.83;;
66272;SDS011;58450;52.150;4.466;2023-04-24T12:17:23;10.27;;;2.22;;
66272;SDS011;58450;52.150;4.466;2023-04-24T12:19:56;12.80;;;2.97;;
66272;SDS011;58450;52.150;4.466;2023-04-24T12:22:28;17.00;;;3.00;;
66272;SDS011;58450;52.150;4.466;2023-04-24T12:25:11;14.77;;;3.00;;
66272;SDS011;58450;52.150;4.466;2023-04-24T12:27:39;12.75;;;3.22;;
66272;SDS011;58450;52.150;4.466;2023-04-24T12:30:10;13.20;;;2.95;;
66272;SDS011;58450;52.150;4.466;2023-04-24T12:32:41;13.45;;;2.88;;
66272;SDS011;58450;52.150;4.466;2023-04-24T12:35:10;12.13;;;2.67;;
66272;SDS011;58450;52.150;4.466;2023-04-24T12:37:41;11.75;;;2.88;;
66272;SDS011;58450;52.150;4.466;2023-04-24T12:40:10;16.42;;;2.92;;
66272;SDS011;58450;52.150;4.466;2023-04-24T12:42:41;17.65;;;3.83;;
66272;SDS011;58450;52.150;4.466;2023-04-24T12:45:10;15.48;;;3.00;;
66272;SDS011;58450;52.150;4.466;2023-04-24T12:47:39;14.25;;;3.38;;
66272;SDS011;58450;52.150;4.466;2023-04-24T12:50:08;13.65;;;3.10;;
66272;SDS011;58450;52.150;4.466;2023-04-24T12:52:39;13.02;;;2.67;;
66272;SDS011;58450;52.150;4.466;2023-04-24T12:55:07;13.73;;;3.10;;
66272;SDS011;58450;52.150;4.466;2023-04-24T12:57:36;9.88;;;2.88;;
66272;SDS011;58450;52.150;4.466;2023-04-24T13:00:06;11.77;;;2.53;;
66272;SDS011;58450;52.150;4.466;2023-04-24T13:02:35;12.02;;;2.58;;
66272;SDS011;58450;52.150;4.466;2023-04-24T13:05:03;13.57;;;3.17;;
66272;SDS011;58450;52.150;4.466;2023-04-24T13:07:32;10.23;;;2.33;;
66272;SDS011;58450;52.150;4.466;2023-04-24T13:10:01;10.68;;;2.63;;
66272;SDS011;58450;52.150;4.466;2023-04-24T13:12:29;12.95;;;2.83;;
66272;SDS011;58450;52.150;4.466;2023-04-24T13:14:57;13.23;;;2.92;;
66272;SDS011;58450;52.150;4.466;2023-04-24T13:17:25;13.02;;;3.00;;
66272;SDS011;58450;52.150;4.466;2023-04-24T13:19:53;13.48;;;2.72;;
66272;SDS011;58450;52.150;4.466;2023-04-24T13:22:21;9.32;;;2.30;;
66272;SDS011;58450;52.150;4.466;2023-04-24T13:24:49;8.00;;;2.60;;
66272;SDS011;58450;52.150;4.466;2023-04-24T13:27:18;13.57;;;3.38;;
66272;SDS011;58450;52.150;4.466;2023-04-24T13:29:46;17.88;;;3.25;;
66272;SDS011;58450;52.150;4.466;2023-04-24T13:32:13;11.73;;;2.78;;
66272;SDS011;58450;52.150;4.466;2023-04-24T13:34:41;17.00;;;3.35;;
66272;SDS011;58450;52.150;4.466;2023-04-24T13:37:09;12.85;;;3.20;;
66272;SDS011;58450;52.150;4.466;2023-04-24T13:39:36;9.23;;;2.90;;
66272;SDS011;58450;52.150;4.466;2023-04-24T13:42:04;11.50;;;2.95;;
66272;SDS011;58450;52.150;4.466;2023-04-24T13:44:32;15.10;;;3.50;;
66272;SDS011;58450;52.150;4.466;2023-04-24T13:47:00;12.80;;;3.60;;
66272;SDS011;58450;52.150;4.466;2023-04-24T13:49:27;9.73;;;3.10;;
66272;SDS011;58450;52.150;4.466;2023-04-24T13:51:55;9.23;;;2.90;;
66272;SDS011;58450;52.150;4.466;2023-04-24T13:54:23;18.58;;;3.65;;
66272;SDS011;58450;52.150;4.466;2023-04-24T13:56:51;10.43;;;2.97;;
66272;SDS011;58450;52.150;4.466;2023-04-24T13:59:19;11.30;;;3.45;;
66272;SDS011;58450;52.150;4.466;2023-04-24T14:01:49;8.15;;;2.42;;
66272;SDS011;58450;52.150;4.466;2023-04-24T14:04:16;13.20;;;3.15;;
66272;SDS011;58450;52.150;4.466;2023-04-24T14:06:44;8.23;;;2.70;;
66272;SDS011;58450;52.150;4.466;2023-04-24T14:09:11;10.77;;;2.70;;
66272;SDS011;58450;52.150;4.466;2023-04-24T14:11:39;9.63;;;2.60;;
66272;SDS011;58450;52.150;4.466;2023-04-24T14:14:07;13.75;;;3.20;;
66272;SDS011;58450;52.150;4.466;2023-04-24T14:16:34;14.30;;;3.17;;
66272;SDS011;58450;52.150;4.466;2023-04-24T14:19:03;12.02;;;3.15;;
66272;SDS011;58450;52.150;4.466;2023-04-24T14:21:32;13.18;;;3.25;;
66272;SDS011;58450;52.150;4.466;2023-04-24T14:23:59;16.15;;;3.35;;
66272;SDS011;58450;52.150;4.466;2023-04-24T14:26:27;15.68;;;4.00;;
66272;SDS011;58450;52.150;4.466;2023-04-24T14:28:54;15.00;;;3.40;;
66272;SDS011;58450;52.150;4.466;2023-04-24T14:31:22;15.35;;;3.88;;
66272;SDS011;58450;52.150;4.466;2023-04-24T14:33:49;16.60;;;3.72;;
66272;SDS011;58450;52.150;4.466;2023-04-24T14:36:18;20.58;;;4.20;;
66272;SDS011;58450;52.150;4.466;2023-04-24T14:38:45;11.82;;;3.67;;
66272;SDS011;58450;52.150;4.466;2023-04-24T14:41:13;16.10;;;3.47;;
66272;SDS011;58450;52.150;4.466;2023-04-24T14:43:41;14.68;;;3.70;;
66272;SDS011;58450;52.150;4.466;2023-04-24T14:46:08;10.80;;;2.97;;
66272;SDS011;58450;52.150;4.466;2023-04-24T14:48:36;10.48;;;2.92;;
66272;SDS011;58450;52.150;4.466;2023-04-24T14:51:03;15.60;;;3.38;;